createdAt,value
2022-10-21T00:04:08.554Z,2.46
2022-10-21T00:09:15.580Z,2.44
2022-10-21T00:14:22.563Z,2.51
2022-10-21T00:19:29.547Z,2.44
2022-10-21T00:24:36.762Z,2.30
2022-10-21T00:29:43.807Z,2.13
2022-10-21T00:34:50.724Z,2.06
2022-10-21T00:39:57.801Z,2.06
2022-10-21T00:45:24.457Z,2.14
2022-10-21T00:50:40.325Z,2.23
2022-10-21T00:55:52.695Z,2.28
2022-10-21T01:01:02.134Z,2.32
2022-10-21T01:06:11.759Z,2.40
2022-10-21T01:11:21.446Z,2.41
2022-10-21T01:16:37.161Z,2.27
2022-10-21T01:21:49.439Z,2.18
2022-10-21T01:27:30.794Z,2.23
2022-10-21T01:32:49.107Z,2.32
2022-10-21T01:38:08.635Z,2.38
2022-10-21T01:43:22.312Z,2.39
2022-10-21T01:48:34.791Z,2.19
2022-10-21T01:53:46.907Z,1.90
2022-10-21T01:58:55.340Z,1.63
2022-10-21T02:04:06.061Z,1.48
2022-10-21T02:09:13.226Z,1.42
2022-10-21T02:14:22.222Z,1.39
2022-10-21T02:24:48.731Z,1.26
2022-10-21T02:30:01.004Z,1.13
2022-10-21T02:35:18.715Z,1.17
2022-10-21T02:40:32.007Z,1.30
2022-10-21T02:45:40.126Z,1.32
2022-10-21T02:50:47.376Z,1.23
2022-10-21T02:55:54.249Z,1.12
2022-10-21T03:01:01.437Z,1.21
2022-10-21T03:06:07.412Z,1.22
2022-10-21T03:11:14.806Z,1.09
2022-10-21T03:16:20.108Z,1.12
2022-10-21T03:21:27.953Z,1.12
2022-10-21T03:26:35.077Z,1.00
2022-10-21T03:31:42.469Z,0.87
2022-10-21T03:36:49.489Z,0.76
2022-10-21T03:41:57.014Z,0.84
2022-10-21T03:47:03.905Z,0.79
2022-10-21T03:52:10.957Z,0.64
2022-10-21T03:57:18.054Z,0.61
2022-10-21T04:02:25.251Z,0.57
2022-10-21T04:07:32.205Z,0.43
2022-10-21T04:12:40.061Z,0.38
2022-10-21T04:17:48.156Z,0.41
2022-10-21T04:22:55.492Z,0.47
2022-10-21T04:28:03.033Z,0.43
2022-10-21T04:33:10.602Z,0.32
2022-10-21T04:38:17.699Z,0.27
2022-10-21T04:43:24.869Z,0.22
2022-10-21T04:48:31.996Z,0.10
2022-10-21T04:53:37.590Z,0.01
2022-10-21T04:58:44.724Z,-0.02
2022-10-21T05:03:51.977Z,-0.07
2022-10-21T05:08:58.900Z,-0.13
2022-10-21T05:14:06.152Z,-0.14
2022-10-21T05:19:12.426Z,-0.11
2022-10-21T05:24:19.726Z,-0.10
2022-10-21T05:29:25.488Z,-0.18
2022-10-21T05:34:32.384Z,-0.19
2022-10-21T05:44:51.355Z,-0.23
2022-10-21T05:49:58.592Z,-0.21
2022-10-21T05:55:06.508Z,-0.08
2022-10-21T06:00:15.660Z,0.10
2022-10-21T06:05:23.252Z,0.32
2022-10-21T06:10:30.270Z,0.58
2022-10-21T06:15:37.893Z,0.82
2022-10-21T06:20:44.825Z,1.08
2022-10-21T06:26:00.228Z,1.30
2022-10-21T06:31:08.267Z,1.50
2022-10-21T06:36:15.384Z,1.57
2022-10-21T06:41:22.470Z,1.64
2022-10-21T06:46:30.963Z,1.72
2022-10-21T06:51:37.813Z,1.84
2022-10-21T06:56:44.815Z,1.92
2022-10-21T07:02:00.529Z,2.02
2022-10-21T07:07:08.395Z,2.15
2022-10-21T07:12:14.154Z,2.28
2022-10-21T07:17:21.341Z,2.41
2022-10-21T07:22:26.816Z,2.57
2022-10-21T07:37:21.318Z,2.66
2022-10-21T07:42:28.750Z,2.78
2022-10-21T07:47:36.284Z,3.01
2022-10-21T07:52:55.971Z,3.25
2022-10-21T07:58:11.291Z,3.42
2022-10-21T08:03:18.648Z,3.52
2022-10-21T08:08:24.151Z,3.59
2022-10-21T08:13:31.990Z,3.68
2022-10-21T08:18:38.818Z,3.75
2022-10-21T08:23:46.460Z,3.84
2022-10-21T08:28:53.671Z,4.01
2022-10-21T08:34:01.316Z,4.17
2022-10-21T08:39:08.664Z,4.34
2022-10-21T08:44:17.448Z,4.51
2022-10-21T08:49:31.479Z,4.69
2022-10-21T08:54:47.041Z,4.88
2022-10-21T08:59:54.283Z,5.07
2022-10-21T09:05:10.044Z,5.27
2022-10-21T09:10:26.812Z,5.50
2022-10-21T09:15:40.860Z,5.72
2022-10-21T09:21:01.931Z,5.95
2022-10-21T09:26:26.581Z,6.20
2022-10-21T09:31:36.890Z,6.44
2022-10-21T09:36:48.752Z,6.64
2022-10-21T09:42:01.690Z,6.79
2022-10-21T09:47:22.174Z,6.88
2022-10-21T09:52:33.775Z,6.99
2022-10-21T09:57:47.373Z,7.08
2022-10-21T10:02:54.211Z,7.20
2022-10-21T10:08:01.367Z,7.34
2022-10-21T10:13:17.616Z,7.46
2022-10-21T10:18:26.647Z,7.62
2022-10-21T10:23:43.728Z,7.77
2022-10-21T10:28:58.121Z,7.96
2022-10-21T10:34:08.106Z,8.18
2022-10-21T10:39:24.699Z,8.36
2022-10-21T10:44:37.818Z,8.53
2022-10-21T10:49:45.402Z,8.66
2022-10-21T10:55:18.690Z,8.78
2022-10-21T11:00:26.367Z,8.93
2022-10-21T11:05:38.423Z,9.03
2022-10-21T11:10:49.475Z,9.18
2022-10-21T11:16:11.662Z,9.29
2022-10-21T11:21:34.284Z,9.36
2022-10-21T11:26:51.525Z,9.41
2022-10-21T11:32:11.196Z,9.46
2022-10-21T11:37:32.512Z,9.50
2022-10-21T11:42:45.104Z,9.53
2022-10-21T11:47:59.657Z,9.54
2022-10-21T11:53:28.042Z,9.56
2022-10-21T11:58:46.308Z,9.61
2022-10-21T12:04:15.241Z,9.70
2022-10-21T12:09:27.985Z,9.82
2022-10-21T12:14:38.569Z,9.92
2022-10-21T12:19:53.348Z,10.02
2022-10-21T12:25:20.054Z,10.13
2022-10-21T12:30:55.536Z,10.26
2022-10-21T12:36:20.025Z,10.42
2022-10-21T12:41:35.523Z,10.57
2022-10-21T12:46:45.114Z,10.71
2022-10-21T12:51:56.023Z,10.85
2022-10-21T12:57:06.184Z,10.99
2022-10-21T13:02:29.839Z,11.10
2022-10-21T13:07:40.403Z,11.19
2022-10-21T13:12:49.257Z,11.28
2022-10-21T13:17:57.773Z,11.39
2022-10-21T13:23:32.877Z,11.50
2022-10-21T13:28:40.160Z,11.58
2022-10-21T13:33:54.845Z,11.63
2022-10-21T13:39:07.710Z,11.68
2022-10-21T13:44:30.103Z,11.71
2022-10-21T13:49:37.065Z,11.75
2022-10-21T13:54:44.281Z,11.80
2022-10-21T14:00:03.178Z,11.85
2022-10-21T14:05:37.199Z,11.89
2022-10-21T14:10:48.338Z,11.93
2022-10-21T14:15:55.881Z,11.94
2022-10-21T14:21:04.096Z,11.95
2022-10-21T14:26:11.766Z,11.97
2022-10-21T14:41:07.089Z,11.98
2022-10-21T14:46:15.937Z,11.92
2022-10-21T14:51:25.583Z,11.87
2022-10-21T14:56:36.207Z,11.82
2022-10-21T15:01:45.566Z,11.74
2022-10-21T15:07:03.786Z,11.64
2022-10-21T15:12:22.143Z,11.57
2022-10-21T15:17:29.271Z,11.47
2022-10-21T15:22:38.330Z,11.28
2022-10-21T15:27:46.096Z,11.14
2022-10-21T15:32:55.382Z,11.07
2022-10-21T15:38:02.649Z,11.03
2022-10-21T15:43:12.343Z,10.97
2022-10-21T15:48:23.321Z,10.92
2022-10-21T15:53:30.960Z,10.86
2022-10-21T15:58:38.086Z,10.82
2022-10-21T16:03:46.050Z,10.78
2022-10-21T16:08:54.030Z,10.60
2022-10-21T16:14:01.367Z,10.39
2022-10-21T16:19:08.856Z,10.24
2022-10-21T16:24:18.843Z,10.19
2022-10-21T16:29:27.079Z,10.20
2022-10-21T16:34:34.362Z,10.19
2022-10-21T16:39:41.586Z,10.14
2022-10-21T16:44:50.198Z,10.02
2022-10-21T16:50:02.221Z,9.89
2022-10-21T16:55:12.115Z,9.74
2022-10-21T17:00:20.427Z,9.70
2022-10-21T17:05:29.298Z,9.71
2022-10-21T17:10:36.582Z,9.71
2022-10-21T17:15:44.523Z,9.69
2022-10-21T17:20:54.065Z,9.63
2022-10-21T17:26:02.088Z,9.60
2022-10-21T17:31:11.347Z,9.58
2022-10-21T17:36:19.866Z,9.59
2022-10-21T17:41:27.285Z,9.62
2022-10-21T17:46:34.816Z,9.60
2022-10-21T17:51:42.553Z,9.64
2022-10-21T17:56:52.435Z,9.60
2022-10-21T18:02:01.940Z,9.62
2022-10-21T18:12:35.757Z,9.55
2022-10-21T18:17:43.402Z,9.47
2022-10-21T18:22:53.055Z,9.33
2022-10-21T18:28:00.327Z,9.33
2022-10-21T18:33:07.836Z,9.32
2022-10-21T18:38:15.928Z,9.29
2022-10-21T18:43:23.384Z,9.25
2022-10-21T18:48:30.684Z,9.18
2022-10-21T18:53:39.252Z,9.16
2022-10-21T18:58:47.879Z,9.17
2022-10-21T19:03:56.475Z,9.18
2022-10-21T19:09:04.999Z,9.20
2022-10-21T19:14:14.272Z,9.20
2022-10-21T19:19:21.904Z,9.16
2022-10-21T19:24:29.183Z,9.15
2022-10-21T19:29:36.838Z,9.20
2022-10-21T19:34:44.433Z,9.22
2022-10-21T19:39:51.812Z,9.16
2022-10-21T19:44:58.794Z,9.13
2022-10-21T19:50:04.439Z,9.11
2022-10-21T19:55:12.230Z,9.09
2022-10-21T20:00:19.677Z,9.14
2022-10-21T20:05:26.962Z,9.19
2022-10-21T20:10:34.712Z,9.19
2022-10-21T20:15:49.410Z,9.19
2022-10-21T20:20:57.021Z,9.25
2022-10-21T20:26:05.218Z,9.32
2022-10-21T20:31:14.560Z,9.38
2022-10-21T20:36:24.162Z,9.40
2022-10-21T20:41:34.437Z,9.42
2022-10-21T20:46:41.484Z,9.40
2022-10-21T20:51:48.718Z,9.24
2022-10-21T20:56:54.039Z,9.07
2022-10-21T21:02:01.283Z,9.01
2022-10-21T21:07:06.703Z,8.97
2022-10-21T21:12:13.699Z,9.02
2022-10-21T21:21:23.883Z,9.06
2022-10-21T21:26:34.478Z,9.06
2022-10-21T21:31:42.610Z,9.08
2022-10-21T21:36:49.887Z,9.02
2022-10-21T21:41:57.118Z,8.95
2022-10-21T21:47:04.116Z,8.88
2022-10-21T21:52:09.539Z,8.84
2022-10-21T21:57:34.115Z,8.76
2022-10-21T22:02:41.271Z,8.71
2022-10-21T22:07:47.114Z,8.66
2022-10-21T22:12:56.582Z,8.55
2022-10-21T22:18:03.598Z,8.50
2022-10-21T22:23:09.124Z,8.43
2022-10-21T22:28:16.140Z,8.28
2022-10-21T22:33:23.112Z,8.07
2022-10-21T22:38:30.506Z,7.93
2022-10-21T22:43:37.649Z,7.92
2022-10-21T22:48:43.001Z,7.97
2022-10-21T22:53:55.153Z,8.03
2022-10-21T22:59:03.967Z,8.09
2022-10-21T23:04:12.358Z,8.09
2022-10-21T23:09:19.864Z,7.99
2022-10-21T23:14:27.120Z,7.91
2022-10-21T23:19:34.603Z,7.90
2022-10-21T23:24:41.686Z,7.89
2022-10-21T23:29:48.712Z,7.94
2022-10-21T23:34:55.869Z,7.99
2022-10-21T23:40:02.993Z,7.97
2022-10-21T23:45:09.364Z,7.97
2022-10-21T23:50:16.799Z,7.93
2022-10-21T23:55:23.824Z,7.89
